sensor_id;sensor_type;location;lat;lon;timestamp;temperature;humidity
802;DHT22;383;48.766;9.270;2022-11-18T04:38:28;10.00;99.90
802;DHT22;383;48.766;9.270;2022-11-18T04:40:55;10.00;99.90
802;DHT22;383;48.766;9.270;2022-11-18T04:43:22;10.00;99.90
802;DHT22;383;48.766;9.270;2022-11-18T04:45:49;10.00;99.90
802;DHT22;383;48.766;9.270;2022-11-18T04:48:16;10.00;99.90
802;DHT22;383;48.766;9.270;2022-11-18T04:50:44;9.90;99.90
802;DHT22;383;48.766;9.270;2022-11-18T04:53:10;10.00;99.90
802;DHT22;383;48.766;9.270;2022-11-18T04:55:38;10.00;99.90
802;DHT22;383;48.766;9.270;2022-11-18T04:58:05;10.00;99.90
802;DHT22;383;48.766;9.270;2022-11-18T05:00:32;9.90;99.90
802;DHT22;383;48.766;9.270;2022-11-18T05:02:59;9.90;99.90
802;DHT22;383;48.766;9.270;2022-11-18T05:05:25;9.80;99.90
802;DHT22;383;48.766;9.270;2022-11-18T05:07:52;9.80;99.90
802;DHT22;383;48.766;9.270;2022-11-18T05:10:19;9.90;99.90
802;DHT22;383;48.766;9.270;2022-11-18T05:12:47;9.90;99.90
802;DHT22;383;48.766;9.270;2022-11-18T05:15:13;9.90;99.90
802;DHT22;383;48.766;9.270;2022-11-18T05:17:40;9.90;99.90
802;DHT22;383;48.766;9.270;2022-11-18T05:20:07;9.90;99.90
802;DHT22;383;48.766;9.270;2022-11-18T05:22:35;9.90;99.90
802;DHT22;383;48.766;9.270;2022-11-18T05:25:02;9.90;99.90
802;DHT22;383;48.766;9.270;2022-11-18T05:27:29;9.90;99.90
802;DHT22;383;48.766;9.270;2022-11-18T05:29:57;9.80;99.90
802;DHT22;383;48.766;9.270;2022-11-18T05:32:24;9.90;99.90
802;DHT22;383;48.766;9.270;2022-11-18T05:34:51;9.80;99.90
802;DHT22;383;48.766;9.270;2022-11-18T05:37:18;9.90;99.90
802;DHT22;383;48.766;9.270;2022-11-18T05:39:44;9.80;99.90
802;DHT22;383;48.766;9.270;2022-11-18T05:42:11;9.80;99.90
802;DHT22;383;48.766;9.270;2022-11-18T05:44:57;9.80;99.90
802;DHT22;383;48.766;9.270;2022-11-18T05:47:24;9.70;99.90
802;DHT22;383;48.766;9.270;2022-11-18T05:49:51;9.70;99.90
802;DHT22;383;48.766;9.270;2022-11-18T05:52:17;9.80;99.90
802;DHT22;383;48.766;9.270;2022-11-18T05:54:49;9.80;99.90
802;DHT22;383;48.766;9.270;2022-11-18T05:57:16;9.70;99.90
802;DHT22;383;48.766;9.270;2022-11-18T05:59:42;9.70;99.90
802;DHT22;383;48.766;9.270;2022-11-18T06:02:14;9.70;99.90
802;DHT22;383;48.766;9.270;2022-11-18T06:04:45;9.70;99.90
802;DHT22;383;48.766;9.270;2022-11-18T06:07:14;9.70;99.90
802;DHT22;383;48.766;9.270;2022-11-18T06:09:45;9.80;99.90
802;DHT22;383;48.766;9.270;2022-11-18T06:12:15;9.70;99.90
802;DHT22;383;48.766;9.270;2022-11-18T06:14:45;9.70;99.90
802;DHT22;383;48.766;9.270;2022-11-18T06:17:18;9.70;99.90
802;DHT22;383;48.766;9.270;2022-11-18T06:19:46;9.70;99.60
802;DHT22;383;48.766;9.270;2022-11-18T06:22:13;9.70;99.20
802;DHT22;383;48.766;9.270;2022-11-18T06:24:40;9.70;99.40
802;DHT22;383;48.766;9.270;2022-11-18T06:27:07;9.70;99.40
802;DHT22;383;48.766;9.270;2022-11-18T06:29:34;9.70;99.40
802;DHT22;383;48.766;9.270;2022-11-18T06:32:01;9.70;99.40
802;DHT22;383;48.766;9.270;2022-11-18T06:34:29;9.60;99.40
802;DHT22;383;48.766;9.270;2022-11-18T06:36:56;9.60;99.40
802;DHT22;383;48.766;9.270;2022-11-18T06:39:23;9.60;99.40
802;DHT22;383;48.766;9.270;2022-11-18T06:41:51;9.50;99.90
802;DHT22;383;48.766;9.270;2022-11-18T06:44:18;9.50;99.90
802;DHT22;383;48.766;9.270;2022-11-18T06:46:44;9.50;99.90
802;DHT22;383;48.766;9.270;2022-11-18T06:49:23;9.50;99.50
802;DHT22;383;48.766;9.270;2022-11-18T06:51:51;9.40;99.90
802;DHT22;383;48.766;9.270;2022-11-18T06:54:18;9.40;99.90
802;DHT22;383;48.766;9.270;2022-11-18T06:56:45;9.40;99.90
802;DHT22;383;48.766;9.270;2022-11-18T06:59:12;9.40;99.90
802;DHT22;383;48.766;9.270;2022-11-18T07:01:40;9.50;99.90
802;DHT22;383;48.766;9.270;2022-11-18T07:04:07;9.50;99.90
802;DHT22;383;48.766;9.270;2022-11-18T07:06:35;9.50;99.90
802;DHT22;383;48.766;9.270;2022-11-18T07:09:05;9.50;99.90
802;DHT22;383;48.766;9.270;2022-11-18T07:11:32;9.50;99.90
802;DHT22;383;48.766;9.270;2022-11-18T07:13:59;9.50;99.90
802;DHT22;383;48.766;9.270;2022-11-18T07:16:26;9.60;99.90
802;DHT22;383;48.766;9.270;2022-11-18T07:18:54;9.70;99.90
802;DHT22;383;48.766;9.270;2022-11-18T07:21:23;9.70;99.90
802;DHT22;383;48.766;9.270;2022-11-18T07:23:50;9.70;99.90
802;DHT22;383;48.766;9.270;2022-11-18T07:26:18;9.70;99.90
802;DHT22;383;48.766;9.270;2022-11-18T07:28:45;9.80;99.90
802;DHT22;383;48.766;9.270;2022-11-18T07:31:14;9.80;99.90
802;DHT22;383;48.766;9.270;2022-11-18T07:33:42;9.80;99.90
802;DHT22;383;48.766;9.270;2022-11-18T07:36:11;9.70;99.90
802;DHT22;383;48.766;9.270;2022-11-18T07:38:38;9.70;99.00
802;DHT22;383;48.766;9.270;2022-11-18T07:41:06;9.60;99.90
802;DHT22;383;48.766;9.270;2022-11-18T07:43:37;9.70;99.90
802;DHT22;383;48.766;9.270;2022-11-18T07:46:14;9.80;99.20
802;DHT22;383;48.766;9.270;2022-11-18T07:48:43;9.80;99.70
802;DHT22;383;48.766;9.270;2022-11-18T07:51:11;9.80;99.90
802;DHT22;383;48.766;9.270;2022-11-18T07:53:38;9.80;99.90
802;DHT22;383;48.766;9.270;2022-11-18T07:56:06;9.90;99.90
802;DHT22;383;48.766;9.270;2022-11-18T07:58:34;10.00;99.20
802;DHT22;383;48.766;9.270;2022-11-18T08:01:06;10.00;99.50
802;DHT22;383;48.766;9.270;2022-11-18T08:03:33;10.00;98.90
802;DHT22;383;48.766;9.270;2022-11-18T08:06:00;10.10;98.60
802;DHT22;383;48.766;9.270;2022-11-18T08:08:27;10.10;98.80
802;DHT22;383;48.766;9.270;2022-11-18T08:10:54;10.10;99.10
802;DHT22;383;48.766;9.270;2022-11-18T08:13:21;10.10;99.20
802;DHT22;383;48.766;9.270;2022-11-18T08:15:50;10.20;98.80
802;DHT22;383;48.766;9.270;2022-11-18T08:18:16;10.20;98.70
802;DHT22;383;48.766;9.270;2022-11-18T08:20:43;10.20;98.20
802;DHT22;383;48.766;9.270;2022-11-18T08:23:10;10.20;98.00
802;DHT22;383;48.766;9.270;2022-11-18T08:25:38;10.20;98.40
802;DHT22;383;48.766;9.270;2022-11-18T08:28:05;10.20;98.90
802;DHT22;383;48.766;9.270;2022-11-18T08:30:32;10.20;99.50
802;DHT22;383;48.766;9.270;2022-11-18T08:33:01;10.30;98.40
802;DHT22;383;48.766;9.270;2022-11-18T08:35:28;10.30;98.40
802;DHT22;383;48.766;9.270;2022-11-18T08:37:55;10.20;98.20
802;DHT22;383;48.766;9.270;2022-11-18T08:40:22;10.20;98.30
802;DHT22;383;48.766;9.270;2022-11-18T08:42:49;10.20;98.90
802;DHT22;383;48.766;9.270;2022-11-18T08:45:15;10.30;98.70
802;DHT22;383;48.766;9.270;2022-11-18T08:47:42;10.40;98.40
802;DHT22;383;48.766;9.270;2022-11-18T08:50:10;10.40;98.50
802;DHT22;383;48.766;9.270;2022-11-18T08:52:37;10.40;98.50
802;DHT22;383;48.766;9.270;2022-11-18T08:55:04;10.40;98.70
802;DHT22;383;48.766;9.270;2022-11-18T08:57:31;10.40;98.80
802;DHT22;383;48.766;9.270;2022-11-18T08:59:58;10.50;99.00
802;DHT22;383;48.766;9.270;2022-11-18T09:02:25;10.60;98.70
802;DHT22;383;48.766;9.270;2022-11-18T09:04:51;10.70;98.30
802;DHT22;383;48.766;9.270;2022-11-18T09:07:21;10.70;98.60
802;DHT22;383;48.766;9.270;2022-11-18T09:09:48;10.80;97.90
802;DHT22;383;48.766;9.270;2022-11-18T09:12:14;10.80;97.30
802;DHT22;383;48.766;9.270;2022-11-18T09:14:42;10.80;96.20
802;DHT22;383;48.766;9.270;2022-11-18T09:17:09;10.80;96.90
802;DHT22;383;48.766;9.270;2022-11-18T09:19:36;10.80;97.00
802;DHT22;383;48.766;9.270;2022-11-18T09:22:03;10.80;97.70
802;DHT22;383;48.766;9.270;2022-11-18T09:24:31;10.80;98.10
802;DHT22;383;48.766;9.270;2022-11-18T09:26:58;10.90;98.40
802;DHT22;383;48.766;9.270;2022-11-18T09:29:25;10.90;98.00
802;DHT22;383;48.766;9.270;2022-11-18T09:31:52;11.00;96.80
802;DHT22;383;48.766;9.270;2022-11-18T09:34:19;11.00;97.30
802;DHT22;383;48.766;9.270;2022-11-18T09:36:45;11.00;96.30
802;DHT22;383;48.766;9.270;2022-11-18T09:39:12;11.00;96.40
802;DHT22;383;48.766;9.270;2022-11-18T09:41:44;11.00;96.90
802;DHT22;383;48.766;9.270;2022-11-18T09:44:48;11.00;97.20
802;DHT22;383;48.766;9.270;2022-11-18T09:47:24;11.10;96.80
802;DHT22;383;48.766;9.270;2022-11-18T09:49:54;10.90;96.60
802;DHT22;383;48.766;9.270;2022-11-18T09:52:25;10.90;97.30
802;DHT22;383;48.766;9.270;2022-11-18T09:54:52;10.90;97.30
802;DHT22;383;48.766;9.270;2022-11-18T09:57:23;10.90;97.80
802;DHT22;383;48.766;9.270;2022-11-18T09:59:51;10.90;98.20
802;DHT22;383;48.766;9.270;2022-11-18T10:02:36;10.90;98.30
802;DHT22;383;48.766;9.270;2022-11-18T10:05:14;10.80;98.40
802;DHT22;383;48.766;9.270;2022-11-18T10:07:46;10.90;99.00
802;DHT22;383;48.766;9.270;2022-11-18T10:10:18;10.90;99.10
802;DHT22;383;48.766;9.270;2022-11-18T10:12:54;11.00;98.40
802;DHT22;383;48.766;9.270;2022-11-18T10:15:27;11.00;96.70
802;DHT22;383;48.766;9.270;2022-11-18T10:18:09;11.00;97.30
802;DHT22;383;48.766;9.270;2022-11-18T10:20:48;11.00;98.00
802;DHT22;383;48.766;9.270;2022-11-18T10:23:22;11.00;98.30
802;DHT22;383;48.766;9.270;2022-11-18T10:25:51;11.10;98.40
802;DHT22;383;48.766;9.270;2022-11-18T10:28:23;11.20;98.10
802;DHT22;383;48.766;9.270;2022-11-18T10:30:51;11.20;97.80
802;DHT22;383;48.766;9.270;2022-11-18T10:33:24;11.20;97.80
802;DHT22;383;48.766;9.270;2022-11-18T10:36:08;11.30;97.60
802;DHT22;383;48.766;9.270;2022-11-18T10:38:35;11.20;97.70
802;DHT22;383;48.766;9.270;2022-11-18T10:41:04;11.20;97.90
802;DHT22;383;48.766;9.270;2022-11-18T10:43:51;11.30;98.00
802;DHT22;383;48.766;9.270;2022-11-18T10:46:24;11.30;97.30
802;DHT22;383;48.766;9.270;2022-11-18T10:49:14;11.40;97.10
802;DHT22;383;48.766;9.270;2022-11-18T10:51:43;11.40;96.80
802;DHT22;383;48.766;9.270;2022-11-18T10:54:14;11.10;97.00
802;DHT22;383;48.766;9.270;2022-11-18T10:56:46;11.00;97.90
802;DHT22;383;48.766;9.270;2022-11-18T10:59:25;11.00;98.40
802;DHT22;383;48.766;9.270;2022-11-18T11:01:59;10.90;98.70
802;DHT22;383;48.766;9.270;2022-11-18T11:04:27;10.90;99.50
802;DHT22;383;48.766;9.270;2022-11-18T11:06:56;11.00;99.60
802;DHT22;383;48.766;9.270;2022-11-18T11:09:26;11.00;98.70
802;DHT22;383;48.766;9.270;2022-11-18T11:12:01;11.10;98.80
802;DHT22;383;48.766;9.270;2022-11-18T11:14:34;11.10;99.20
802;DHT22;383;48.766;9.270;2022-11-18T11:17:05;11.20;98.50
802;DHT22;383;48.766;9.270;2022-11-18T11:19:43;11.20;98.90
802;DHT22;383;48.766;9.270;2022-11-18T11:22:11;11.20;99.40
802;DHT22;383;48.766;9.270;2022-11-18T11:24:38;11.10;97.90
802;DHT22;383;48.766;9.270;2022-11-18T11:27:13;11.00;98.60
802;DHT22;383;48.766;9.270;2022-11-18T11:30:03;10.90;99.30
802;DHT22;383;48.766;9.270;2022-11-18T11:32:44;10.90;99.00
802;DHT22;383;48.766;9.270;2022-11-18T11:35:20;10.70;99.50
802;DHT22;383;48.766;9.270;2022-11-18T11:37:51;10.70;99.90
802;DHT22;383;48.766;9.270;2022-11-18T11:40:24;10.70;99.50
802;DHT22;383;48.766;9.270;2022-11-18T11:43:04;10.80;99.60
802;DHT22;383;48.766;9.270;2022-11-18T11:45:39;10.90;99.90
802;DHT22;383;48.766;9.270;2022-11-18T11:48:20;10.90;97.40
802;DHT22;383;48.766;9.270;2022-11-18T11:50:52;11.00;98.90
802;DHT22;383;48.766;9.270;2022-11-18T11:53:28;11.10;99.90
802;DHT22;383;48.766;9.270;2022-11-18T11:56:03;11.20;99.90
802;DHT22;383;48.766;9.270;2022-11-18T11:58:41;11.40;97.50
802;DHT22;383;48.766;9.270;2022-11-18T12:01:33;11.60;96.90
802;DHT22;383;48.766;9.270;2022-11-18T12:04:10;11.70;97.80
802;DHT22;383;48.766;9.270;2022-11-18T12:06:40;11.80;97.90
802;DHT22;383;48.766;9.270;2022-11-18T12:09:14;12.00;97.90
802;DHT22;383;48.766;9.270;2022-11-18T12:11:47;12.10;96.90
802;DHT22;383;48.766;9.270;2022-11-18T12:14:26;12.10;94.00
802;DHT22;383;48.766;9.270;2022-11-18T12:16:59;12.10;92.70
802;DHT22;383;48.766;9.270;2022-11-18T12:19:29;12.00;93.80
802;DHT22;383;48.766;9.270;2022-11-18T12:22:00;12.00;92.40
802;DHT22;383;48.766;9.270;2022-11-18T12:24:33;11.90;93.30
802;DHT22;383;48.766;9.270;2022-11-18T12:27:03;11.90;94.20
802;DHT22;383;48.766;9.270;2022-11-18T12:29:36;11.80;94.40
802;DHT22;383;48.766;9.270;2022-11-18T12:32:25;11.70;93.70
802;DHT22;383;48.766;9.270;2022-11-18T12:34:57;11.60;92.30
802;DHT22;383;48.766;9.270;2022-11-18T12:37:55;11.40;92.80
802;DHT22;383;48.766;9.270;2022-11-18T12:40:41;11.30;92.80
802;DHT22;383;48.766;9.270;2022-11-18T12:46:48;11.00;93.50
802;DHT22;383;48.766;9.270;2022-11-18T12:52:44;10.90;96.70
802;DHT22;383;48.766;9.270;2022-11-18T12:55:15;10.80;96.90
802;DHT22;383;48.766;9.270;2022-11-18T12:57:48;10.90;96.90
802;DHT22;383;48.766;9.270;2022-11-18T13:00:29;10.90;96.10
802;DHT22;383;48.766;9.270;2022-11-18T13:03:00;11.00;96.40
802;DHT22;383;48.766;9.270;2022-11-18T13:05:39;11.00;96.00
802;DHT22;383;48.766;9.270;2022-11-18T13:08:10;10.90;96.80
802;DHT22;383;48.766;9.270;2022-11-18T13:10:46;10.90;96.30
802;DHT22;383;48.766;9.270;2022-11-18T13:13:22;10.90;96.80
802;DHT22;383;48.766;9.270;2022-11-18T13:15:50;10.90;97.50
802;DHT22;383;48.766;9.270;2022-11-18T13:18:48;11.00;97.40
802;DHT22;383;48.766;9.270;2022-11-18T13:21:22;11.00;96.70
802;DHT22;383;48.766;9.270;2022-11-18T13:24:09;11.10;97.40
802;DHT22;383;48.766;9.270;2022-11-18T13:26:38;11.20;97.70
802;DHT22;383;48.766;9.270;2022-11-18T13:29:27;11.30;98.10
802;DHT22;383;48.766;9.270;2022-11-18T13:32:06;11.40;98.20
802;DHT22;383;48.766;9.270;2022-11-18T13:34:45;11.50;98.30
802;DHT22;383;48.766;9.270;2022-11-18T13:37:16;11.70;98.50
802;DHT22;383;48.766;9.270;2022-11-18T13:39:44;11.90;98.00
802;DHT22;383;48.766;9.270;2022-11-18T13:42:17;12.00;96.90
802;DHT22;383;48.766;9.270;2022-11-18T13:44:45;12.10;96.70
802;DHT22;383;48.766;9.270;2022-11-18T13:47:28;12.20;96.20
802;DHT22;383;48.766;9.270;2022-11-18T13:50:12;12.30;94.00
802;DHT22;383;48.766;9.270;2022-11-18T13:52:42;12.10;93.40
802;DHT22;383;48.766;9.270;2022-11-18T13:55:15;12.10;93.80
802;DHT22;383;48.766;9.270;2022-11-18T13:57:46;12.20;94.10
802;DHT22;383;48.766;9.270;2022-11-18T14:00:20;12.20;93.80
802;DHT22;383;48.766;9.270;2022-11-18T14:02:55;12.10;90.30
802;DHT22;383;48.766;9.270;2022-11-18T14:05:24;12.10;92.40
802;DHT22;383;48.766;9.270;2022-11-18T14:07:59;12.20;92.00
802;DHT22;383;48.766;9.270;2022-11-18T14:10:43;12.10;90.40
802;DHT22;383;48.766;9.270;2022-11-18T14:13:23;12.00;92.00
802;DHT22;383;48.766;9.270;2022-11-18T14:15:51;12.00;90.60
802;DHT22;383;48.766;9.270;2022-11-18T14:18:22;12.00;91.90
802;DHT22;383;48.766;9.270;2022-11-18T14:20:53;12.00;91.30
802;DHT22;383;48.766;9.270;2022-11-18T14:23:25;12.00;90.90
802;DHT22;383;48.766;9.270;2022-11-18T14:25:53;11.90;91.10
802;DHT22;383;48.766;9.270;2022-11-18T14:28:24;11.90;91.40
802;DHT22;383;48.766;9.270;2022-11-18T14:31:00;11.90;91.70
802;DHT22;383;48.766;9.270;2022-11-18T14:33:29;11.80;92.70
802;DHT22;383;48.766;9.270;2022-11-18T14:35:58;11.80;92.40
802;DHT22;383;48.766;9.270;2022-11-18T14:38:30;11.80;91.70
802;DHT22;383;48.766;9.270;2022-11-18T14:41:03;11.80;90.70
802;DHT22;383;48.766;9.270;2022-11-18T14:43:31;11.80;89.90
802;DHT22;383;48.766;9.270;2022-11-18T14:45:59;11.70;90.10
802;DHT22;383;48.766;9.270;2022-11-18T14:48:27;11.70;90.30
802;DHT22;383;48.766;9.270;2022-11-18T14:50:54;11.50;89.00
802;DHT22;383;48.766;9.270;2022-11-18T14:53:23;11.50;89.40
802;DHT22;383;48.766;9.270;2022-11-18T14:55:51;11.30;89.40
802;DHT22;383;48.766;9.270;2022-11-18T14:58:19;11.20;90.30
802;DHT22;383;48.766;9.270;2022-11-18T15:00:48;11.10;91.00
802;DHT22;383;48.766;9.270;2022-11-18T15:03:15;11.10;90.80
802;DHT22;383;48.766;9.270;2022-11-18T15:05:42;11.10;91.40
802;DHT22;383;48.766;9.270;2022-11-18T15:08:09;11.10;92.10
802;DHT22;383;48.766;9.270;2022-11-18T15:10:37;11.10;92.20
802;DHT22;383;48.766;9.270;2022-11-18T15:13:03;11.10;91.40
802;DHT22;383;48.766;9.270;2022-11-18T15:15:30;11.10;92.30
802;DHT22;383;48.766;9.270;2022-11-18T15:17:57;11.10;91.30
802;DHT22;383;48.766;9.270;2022-11-18T15:20:24;11.10;90.40
802;DHT22;383;48.766;9.270;2022-11-18T15:22:51;11.10;91.90
802;DHT22;383;48.766;9.270;2022-11-18T15:25:17;11.00;91.30
802;DHT22;383;48.766;9.270;2022-11-18T15:27:45;11.00;91.60
802;DHT22;383;48.766;9.270;2022-11-18T15:30:12;10.90;91.90
802;DHT22;383;48.766;9.270;2022-11-18T15:32:40;11.00;92.60
802;DHT22;383;48.766;9.270;2022-11-18T15:35:09;11.00;92.30
802;DHT22;383;48.766;9.270;2022-11-18T15:37:36;10.90;92.20
802;DHT22;383;48.766;9.270;2022-11-18T15:40:03;10.90;92.50
802;DHT22;383;48.766;9.270;2022-11-18T15:42:30;10.90;92.20
802;DHT22;383;48.766;9.270;2022-11-18T15:44:58;10.90;92.20
802;DHT22;383;48.766;9.270;2022-11-18T15:47:25;10.90;92.50
802;DHT22;383;48.766;9.270;2022-11-18T15:49:51;10.90;93.10
802;DHT22;383;48.766;9.270;2022-11-18T15:52:18;10.90;93.30
802;DHT22;383;48.766;9.270;2022-11-18T15:54:45;10.90;93.30
802;DHT22;383;48.766;9.270;2022-11-18T15:57:12;11.00;93.00
802;DHT22;383;48.766;9.270;2022-11-18T15:59:38;11.00;92.60
802;DHT22;383;48.766;9.270;2022-11-18T16:02:08;10.90;92.40
802;DHT22;383;48.766;9.270;2022-11-18T16:04:35;10.90;92.80
802;DHT22;383;48.766;9.270;2022-11-18T16:07:01;10.90;93.20
802;DHT22;383;48.766;9.270;2022-11-18T16:09:29;10.90;93.60
802;DHT22;383;48.766;9.270;2022-11-18T16:12:16;10.90;93.90
802;DHT22;383;48.766;9.270;2022-11-18T16:15:01;10.90;94.10
802;DHT22;383;48.766;9.270;2022-11-18T16:17:46;10.90;94.30
802;DHT22;383;48.766;9.270;2022-11-18T16:20:13;10.90;93.90
802;DHT22;383;48.766;9.270;2022-11-18T16:22:40;10.90;94.00
802;DHT22;383;48.766;9.270;2022-11-18T16:25:07;10.90;93.90
802;DHT22;383;48.766;9.270;2022-11-18T16:27:34;10.90;93.50
802;DHT22;383;48.766;9.270;2022-11-18T16:30:01;10.90;93.60
802;DHT22;383;48.766;9.270;2022-11-18T16:32:29;10.80;94.10
802;DHT22;383;48.766;9.270;2022-11-18T16:34:56;10.90;93.70
802;DHT22;383;48.766;9.270;2022-11-18T16:37:24;10.90;93.70
802;DHT22;383;48.766;9.270;2022-11-18T16:39:50;10.90;93.50
802;DHT22;383;48.766;9.270;2022-11-18T16:42:17;10.90;93.60
802;DHT22;383;48.766;9.270;2022-11-18T16:44:44;10.90;93.40
802;DHT22;383;48.766;9.270;2022-11-18T16:47:12;10.80;93.70
802;DHT22;383;48.766;9.270;2022-11-18T16:49:38;10.60;94.40
802;DHT22;383;48.766;9.270;2022-11-18T16:52:07;10.60;95.00
802;DHT22;383;48.766;9.270;2022-11-18T16:54:34;10.50;95.40
802;DHT22;383;48.766;9.270;2022-11-18T16:57:01;10.50;95.70
802;DHT22;383;48.766;9.270;2022-11-18T16:59:28;10.50;95.90
802;DHT22;383;48.766;9.270;2022-11-18T17:01:57;10.50;96.00
802;DHT22;383;48.766;9.270;2022-11-18T17:04:24;10.50;96.10
802;DHT22;383;48.766;9.270;2022-11-18T17:06:52;10.50;95.60
802;DHT22;383;48.766;9.270;2022-11-18T17:09:21;10.60;95.70
802;DHT22;383;48.766;9.270;2022-11-18T17:11:49;10.60;95.20
802;DHT22;383;48.766;9.270;2022-11-18T17:14:16;10.60;95.20
802;DHT22;383;48.766;9.270;2022-11-18T17:16:43;10.50;95.30
802;DHT22;383;48.766;9.270;2022-11-18T17:19:12;10.40;95.80
802;DHT22;383;48.766;9.270;2022-11-18T17:21:39;10.40;95.80
802;DHT22;383;48.766;9.270;2022-11-18T17:24:07;10.40;95.90
802;DHT22;383;48.766;9.270;2022-11-18T17:26:35;10.40;95.80
802;DHT22;383;48.766;9.270;2022-11-18T17:29:02;10.50;95.10
802;DHT22;383;48.766;9.270;2022-11-18T17:31:29;10.40;95.30
802;DHT22;383;48.766;9.270;2022-11-18T17:33:56;10.30;95.60
802;DHT22;383;48.766;9.270;2022-11-18T17:36:24;10.30;96.20
802;DHT22;383;48.766;9.270;2022-11-18T17:38:52;10.30;96.70
802;DHT22;383;48.766;9.270;2022-11-18T17:41:21;10.30;96.90
802;DHT22;383;48.766;9.270;2022-11-18T17:44:08;10.30;97.10
802;DHT22;383;48.766;9.270;2022-11-18T17:46:36;10.30;97.20
802;DHT22;383;48.766;9.270;2022-11-18T17:49:05;10.30;97.30
802;DHT22;383;48.766;9.270;2022-11-18T17:51:32;10.30;97.40
802;DHT22;383;48.766;9.270;2022-11-18T17:54:21;10.30;97.50
802;DHT22;383;48.766;9.270;2022-11-18T17:56:49;10.40;97.60
802;DHT22;383;48.766;9.270;2022-11-18T17:59:18;10.40;96.80
802;DHT22;383;48.766;9.270;2022-11-18T18:01:45;10.40;97.20
802;DHT22;383;48.766;9.270;2022-11-18T18:04:12;10.40;96.80
802;DHT22;383;48.766;9.270;2022-11-18T18:06:44;10.30;96.90
802;DHT22;383;48.766;9.270;2022-11-18T18:09:11;10.40;96.90
802;DHT22;383;48.766;9.270;2022-11-18T18:11:38;10.40;96.90
802;DHT22;383;48.766;9.270;2022-11-18T18:14:04;10.40;96.60
802;DHT22;383;48.766;9.270;2022-11-18T18:16:42;10.40;96.60
802;DHT22;383;48.766;9.270;2022-11-18T18:19:11;10.40;96.40
802;DHT22;383;48.766;9.270;2022-11-18T18:21:41;10.40;96.10
802;DHT22;383;48.766;9.270;2022-11-18T18:24:09;10.40;95.30
802;DHT22;383;48.766;9.270;2022-11-18T18:26:36;10.40;95.50
802;DHT22;383;48.766;9.270;2022-11-18T18:29:03;10.40;95.20
802;DHT22;383;48.766;9.270;2022-11-18T18:31:32;10.40;95.20
802;DHT22;383;48.766;9.270;2022-11-18T18:34:01;10.40;95.50
802;DHT22;383;48.766;9.270;2022-11-18T18:36:28;10.40;95.70
802;DHT22;383;48.766;9.270;2022-11-18T18:38:55;10.40;95.60
802;DHT22;383;48.766;9.270;2022-11-18T18:41:23;10.30;95.60
802;DHT22;383;48.766;9.270;2022-11-18T18:43:50;10.30;95.40
802;DHT22;383;48.766;9.270;2022-11-18T18:46:19;10.30;95.50
802;DHT22;383;48.766;9.270;2022-11-18T18:48:55;10.30;95.40
802;DHT22;383;48.766;9.270;2022-11-18T18:51:24;10.30;95.60
802;DHT22;383;48.766;9.270;2022-11-18T18:53:51;10.30;95.70
802;DHT22;383;48.766;9.270;2022-11-18T18:56:17;10.30;95.80
802;DHT22;383;48.766;9.270;2022-11-18T18:58:44;10.30;95.70
802;DHT22;383;48.766;9.270;2022-11-18T19:01:13;10.30;93.70
802;DHT22;383;48.766;9.270;2022-11-18T19:03:41;10.20;94.30
802;DHT22;383;48.766;9.270;2022-11-18T19:06:17;10.20;94.30
802;DHT22;383;48.766;9.270;2022-11-18T19:08:46;10.20;93.70
802;DHT22;383;48.766;9.270;2022-11-18T19:11:13;10.20;93.20
802;DHT22;383;48.766;9.270;2022-11-18T19:13:53;10.20;93.50
802;DHT22;383;48.766;9.270;2022-11-18T19:16:20;10.10;93.20
802;DHT22;383;48.766;9.270;2022-11-18T19:18:47;10.10;93.60
802;DHT22;383;48.766;9.270;2022-11-18T19:21:14;10.10;93.60
802;DHT22;383;48.766;9.270;2022-11-18T19:23:40;10.10;93.10
802;DHT22;383;48.766;9.270;2022-11-18T19:26:08;10.10;92.80
802;DHT22;383;48.766;9.270;2022-11-18T19:28:35;10.10;92.20
802;DHT22;383;48.766;9.270;2022-11-18T19:31:02;10.00;93.20
802;DHT22;383;48.766;9.270;2022-11-18T19:33:29;9.90;93.70
802;DHT22;383;48.766;9.270;2022-11-18T19:35:59;10.00;94.00
802;DHT22;383;48.766;9.270;2022-11-18T19:38:26;10.00;94.20
802;DHT22;383;48.766;9.270;2022-11-18T19:40:57;9.90;94.00
802;DHT22;383;48.766;9.270;2022-11-18T19:43:25;10.00;94.40
802;DHT22;383;48.766;9.270;2022-11-18T19:45:52;10.00;94.70
802;DHT22;383;48.766;9.270;2022-11-18T19:48:19;9.90;93.80
802;DHT22;383;48.766;9.270;2022-11-18T19:50:46;9.90;93.70
802;DHT22;383;48.766;9.270;2022-11-18T19:53:13;9.90;92.60
802;DHT22;383;48.766;9.270;2022-11-18T19:55:57;9.80;93.40
802;DHT22;383;48.766;9.270;2022-11-18T19:58:26;9.90;92.90
802;DHT22;383;48.766;9.270;2022-11-18T20:00:53;10.00;91.80
802;DHT22;383;48.766;9.270;2022-11-18T20:03:19;10.00;92.00
802;DHT22;383;48.766;9.270;2022-11-18T20:05:46;10.00;92.00
802;DHT22;383;48.766;9.270;2022-11-18T20:08:19;10.00;91.70
802;DHT22;383;48.766;9.270;2022-11-18T20:10:46;10.00;91.90
802;DHT22;383;48.766;9.270;2022-11-18T20:13:14;9.90;92.80
802;DHT22;383;48.766;9.270;2022-11-18T20:15:42;9.90;93.00
802;DHT22;383;48.766;9.270;2022-11-18T20:18:10;9.90;93.20
802;DHT22;383;48.766;9.270;2022-11-18T20:20:37;9.90;92.00
802;DHT22;383;48.766;9.270;2022-11-18T20:23:04;10.00;91.90
802;DHT22;383;48.766;9.270;2022-11-18T20:25:30;10.00;91.70
802;DHT22;383;48.766;9.270;2022-11-18T20:27:57;9.90;91.80
802;DHT22;383;48.766;9.270;2022-11-18T20:30:24;9.90;92.30
802;DHT22;383;48.766;9.270;2022-11-18T20:32:52;9.80;93.00
802;DHT22;383;48.766;9.270;2022-11-18T20:35:19;9.80;93.00
802;DHT22;383;48.766;9.270;2022-11-18T20:37:45;9.80;93.20
802;DHT22;383;48.766;9.270;2022-11-18T20:40:12;9.70;93.80
802;DHT22;383;48.766;9.270;2022-11-18T20:42:39;9.70;94.60
802;DHT22;383;48.766;9.270;2022-11-18T20:45:23;9.70;95.10
802;DHT22;383;48.766;9.270;2022-11-18T20:47:51;9.70;94.70
802;DHT22;383;48.766;9.270;2022-11-18T20:50:18;9.70;94.50
802;DHT22;383;48.766;9.270;2022-11-18T20:52:45;9.70;94.50
802;DHT22;383;48.766;9.270;2022-11-18T20:55:12;9.80;94.00
802;DHT22;383;48.766;9.270;2022-11-18T20:57:40;9.70;93.90
802;DHT22;383;48.766;9.270;2022-11-18T21:00:08;9.70;94.30
802;DHT22;383;48.766;9.270;2022-11-18T21:02:35;9.60;94.60
802;DHT22;383;48.766;9.270;2022-11-18T21:05:04;9.70;93.90
802;DHT22;383;48.766;9.270;2022-11-18T21:07:31;9.70;93.50
802;DHT22;383;48.766;9.270;2022-11-18T21:09:58;9.70;94.30
802;DHT22;383;48.766;9.270;2022-11-18T21:12:25;9.60;94.70
802;DHT22;383;48.766;9.270;2022-11-18T21:14:51;9.60;94.90
802;DHT22;383;48.766;9.270;2022-11-18T21:17:17;9.50;95.30
802;DHT22;383;48.766;9.270;2022-11-18T21:19:44;9.60;94.60
802;DHT22;383;48.766;9.270;2022-11-18T21:22:12;9.60;93.90
802;DHT22;383;48.766;9.270;2022-11-18T21:24:38;9.50;94.60
802;DHT22;383;48.766;9.270;2022-11-18T21:27:05;9.60;94.90
802;DHT22;383;48.766;9.270;2022-11-18T21:29:32;9.60;94.30
802;DHT22;383;48.766;9.270;2022-11-18T21:31:59;9.60;93.90
802;DHT22;383;48.766;9.270;2022-11-18T21:34:27;9.60;93.50
802;DHT22;383;48.766;9.270;2022-11-18T21:36:54;9.60;94.40
802;DHT22;383;48.766;9.270;2022-11-18T21:39:22;9.60;94.50
802;DHT22;383;48.766;9.270;2022-11-18T21:41:49;9.60;94.70